sensor_id;sensor_type;location;lat;lon;timestamp;P1;durP1;ratioP1;P2;durP2;ratioP2
71048;SDS011;58704;53.358;-6.238;2022-09-13T00:00:18;8.93;;;3.60;;
71048;SDS011;58704;53.358;-6.238;2022-09-13T00:02:43;8.77;;;3.77;;
71048;SDS011;58704;53.358;-6.238;2022-09-13T00:05:09;6.20;;;3.55;;
71048;SDS011;58704;53.358;-6.238;2022-09-13T00:07:34;8.40;;;3.90;;
71048;SDS011;58704;53.358;-6.238;2022-09-13T00:09:59;6.30;;;3.83;;
71048;SDS011;58704;53.358;-6.238;2022-09-13T00:12:25;6.97;;;4.00;;
71048;SDS011;58704;53.358;-6.238;2022-09-13T00:14:51;6.47;;;3.25;;
71048;SDS011;58704;53.358;-6.238;2022-09-13T00:17:16;6.40;;;3.15;;
71048;SDS011;58704;53.358;-6.238;2022-09-13T00:19:42;10.47;;;3.70;;
71048;SDS011;58704;53.358;-6.238;2022-09-13T00:22:08;7.20;;;3.43;;
71048;SDS011;58704;53.358;-6.238;2022-09-13T00:24:33;4.38;;;3.10;;
71048;SDS011;58704;53.358;-6.238;2022-09-13T00:27:01;6.82;;;3.50;;
71048;SDS011;58704;53.358;-6.238;2022-09-13T00:29:27;7.13;;;3.30;;
71048;SDS011;58704;53.358;-6.238;2022-09-13T00:31:52;9.38;;;3.33;;
71048;SDS011;58704;53.358;-6.238;2022-09-13T00:34:18;4.83;;;3.00;;
71048;SDS011;58704;53.358;-6.238;2022-09-13T00:36:44;7.97;;;3.40;;
71048;SDS011;58704;53.358;-6.238;2022-09-13T00:39:10;9.47;;;3.90;;
71048;SDS011;58704;53.358;-6.238;2022-09-13T00:41:36;9.15;;;3.95;;
71048;SDS011;58704;53.358;-6.238;2022-09-13T00:44:02;9.90;;;4.03;;
71048;SDS011;58704;53.358;-6.238;2022-09-13T00:46:42;8.05;;;3.72;;
71048;SDS011;58704;53.358;-6.238;2022-09-13T00:49:13;8.93;;;3.70;;
71048;SDS011;58704;53.358;-6.238;2022-09-13T00:51:41;7.28;;;3.78;;
71048;SDS011;58704;53.358;-6.238;2022-09-13T00:54:08;5.32;;;3.15;;
71048;SDS011;58704;53.358;-6.238;2022-09-13T00:56:44;7.40;;;3.20;;
71048;SDS011;58704;53.358;-6.238;2022-09-13T00:59:14;4.63;;;2.87;;
71048;SDS011;58704;53.358;-6.238;2022-09-13T01:01:45;7.80;;;3.47;;
71048;SDS011;58704;53.358;-6.238;2022-09-13T01:04:13;5.32;;;2.85;;
71048;SDS011;58704;53.358;-6.238;2022-09-13T01:06:39;10.35;;;3.55;;
71048;SDS011;58704;53.358;-6.238;2022-09-13T01:09:06;7.80;;;2.85;;
71048;SDS011;58704;53.358;-6.238;2022-09-13T01:11:42;5.93;;;2.90;;
71048;SDS011;58704;53.358;-6.238;2022-09-13T01:14:11;5.05;;;2.88;;
71048;SDS011;58704;53.358;-6.238;2022-09-13T01:16:37;4.28;;;2.55;;
71048;SDS011;58704;53.358;-6.238;2022-09-13T01:19:03;6.33;;;2.90;;
71048;SDS011;58704;53.358;-6.238;2022-09-13T01:21:37;8.52;;;2.88;;
71048;SDS011;58704;53.358;-6.238;2022-09-13T01:24:21;6.55;;;2.60;;
71048;SDS011;58704;53.358;-6.238;2022-09-13T01:27:01;11.17;;;2.23;;
71048;SDS011;58704;53.358;-6.238;2022-09-13T01:32:26;8.45;;;2.90;;
71048;SDS011;58704;53.358;-6.238;2022-09-13T01:38:12;4.50;;;3.10;;
71048;SDS011;58704;53.358;-6.238;2022-09-13T01:46:35;5.28;;;2.53;;
71048;SDS011;58704;53.358;-6.238;2022-09-13T01:57:15;9.38;;;2.40;;
71048;SDS011;58704;53.358;-6.238;2022-09-13T01:59:52;7.72;;;2.58;;
71048;SDS011;58704;53.358;-6.238;2022-09-13T02:04:51;4.28;;;2.50;;
71048;SDS011;58704;53.358;-6.238;2022-09-13T02:07:20;6.47;;;2.10;;
71048;SDS011;58704;53.358;-6.238;2022-09-13T02:09:50;4.35;;;1.98;;
71048;SDS011;58704;53.358;-6.238;2022-09-13T02:12:22;7.15;;;2.78;;
71048;SDS011;58704;53.358;-6.238;2022-09-13T02:14:51;8.18;;;2.60;;
71048;SDS011;58704;53.358;-6.238;2022-09-13T02:17:22;6.68;;;2.30;;
71048;SDS011;58704;53.358;-6.238;2022-09-13T02:19:51;6.27;;;2.13;;
71048;SDS011;58704;53.358;-6.238;2022-09-13T02:22:24;6.65;;;2.00;;
71048;SDS011;58704;53.358;-6.238;2022-09-13T02:24:58;8.48;;;2.55;;
71048;SDS011;58704;53.358;-6.238;2022-09-13T02:27:27;4.22;;;2.03;;
71048;SDS011;58704;53.358;-6.238;2022-09-13T02:29:57;6.70;;;2.22;;
71048;SDS011;58704;53.358;-6.238;2022-09-13T02:32:30;6.90;;;2.60;;
71048;SDS011;58704;53.358;-6.238;2022-09-13T02:37:26;5.90;;;2.58;;
71048;SDS011;58704;53.358;-6.238;2022-09-13T02:39:58;4.72;;;2.03;;
71048;SDS011;58704;53.358;-6.238;2022-09-13T02:42:36;7.85;;;2.47;;
71048;SDS011;58704;53.358;-6.238;2022-09-13T02:45:06;7.17;;;2.10;;
71048;SDS011;58704;53.358;-6.238;2022-09-13T02:50:30;5.05;;;2.50;;
71048;SDS011;58704;53.358;-6.238;2022-09-13T02:56:10;4.22;;;2.20;;
71048;SDS011;58704;53.358;-6.238;2022-09-13T02:58:52;9.33;;;2.33;;
71048;SDS011;58704;53.358;-6.238;2022-09-13T03:01:33;5.00;;;1.88;;
71048;SDS011;58704;53.358;-6.238;2022-09-13T03:04:00;7.57;;;2.65;;
71048;SDS011;58704;53.358;-6.238;2022-09-13T03:06:27;9.13;;;2.58;;
71048;SDS011;58704;53.358;-6.238;2022-09-13T03:08:53;7.43;;;2.72;;
71048;SDS011;58704;53.358;-6.238;2022-09-13T03:11:28;8.70;;;2.40;;
71048;SDS011;58704;53.358;-6.238;2022-09-13T03:20:39;3.00;;;2.03;;
71048;SDS011;58704;53.358;-6.238;2022-09-13T03:30:55;3.08;;;2.25;;
71048;SDS011;58704;53.358;-6.238;2022-09-13T03:41:41;9.13;;;2.60;;
71048;SDS011;58704;53.358;-6.238;2022-09-13T03:44:09;10.73;;;2.90;;
71048;SDS011;58704;53.358;-6.238;2022-09-13T03:46:39;5.95;;;2.30;;
71048;SDS011;58704;53.358;-6.238;2022-09-13T03:49:07;5.50;;;2.63;;
71048;SDS011;58704;53.358;-6.238;2022-09-13T03:51:35;4.40;;;1.87;;
71048;SDS011;58704;53.358;-6.238;2022-09-13T03:54:03;5.43;;;2.40;;
71048;SDS011;58704;53.358;-6.238;2022-09-13T03:56:31;7.68;;;2.50;;
71048;SDS011;58704;53.358;-6.238;2022-09-13T03:59:02;3.95;;;1.98;;
71048;SDS011;58704;53.358;-6.238;2022-09-13T04:01:47;4.90;;;2.22;;
71048;SDS011;58704;53.358;-6.238;2022-09-13T04:04:13;6.70;;;2.60;;
71048;SDS011;58704;53.358;-6.238;2022-09-13T04:06:41;3.67;;;2.13;;
71048;SDS011;58704;53.358;-6.238;2022-09-13T04:09:06;6.47;;;2.22;;
71048;SDS011;58704;53.358;-6.238;2022-09-13T04:11:32;7.07;;;2.07;;
71048;SDS011;58704;53.358;-6.238;2022-09-13T04:13:57;4.13;;;1.80;;
71048;SDS011;58704;53.358;-6.238;2022-09-13T04:16:23;6.03;;;2.40;;
71048;SDS011;58704;53.358;-6.238;2022-09-13T04:18:48;3.33;;;2.10;;
71048;SDS011;58704;53.358;-6.238;2022-09-13T04:21:14;5.57;;;2.07;;
71048;SDS011;58704;53.358;-6.238;2022-09-13T04:23:40;5.03;;;2.20;;
71048;SDS011;58704;53.358;-6.238;2022-09-13T04:26:06;5.00;;;2.37;;
71048;SDS011;58704;53.358;-6.238;2022-09-13T04:28:31;4.38;;;2.30;;
71048;SDS011;58704;53.358;-6.238;2022-09-13T04:30:56;8.77;;;2.60;;
71048;SDS011;58704;53.358;-6.238;2022-09-13T04:33:22;7.07;;;2.40;;
71048;SDS011;58704;53.358;-6.238;2022-09-13T04:35:47;6.05;;;2.25;;
71048;SDS011;58704;53.358;-6.238;2022-09-13T04:38:18;6.50;;;2.20;;
71048;SDS011;58704;53.358;-6.238;2022-09-13T04:40:43;6.72;;;2.50;;
71048;SDS011;58704;53.358;-6.238;2022-09-13T04:43:09;7.87;;;2.73;;
71048;SDS011;58704;53.358;-6.238;2022-09-13T04:45:35;6.00;;;2.07;;
71048;SDS011;58704;53.358;-6.238;2022-09-13T05:11:16;3.87;;;2.13;;
71048;SDS011;58704;53.358;-6.238;2022-09-13T05:13:41;7.05;;;2.45;;
71048;SDS011;58704;53.358;-6.238;2022-09-13T05:16:07;5.17;;;1.70;;
71048;SDS011;58704;53.358;-6.238;2022-09-13T05:18:33;4.45;;;1.75;;
71048;SDS011;58704;53.358;-6.238;2022-09-13T05:21:00;5.67;;;2.20;;
71048;SDS011;58704;53.358;-6.238;2022-09-13T05:23:27;3.00;;;1.50;;
71048;SDS011;58704;53.358;-6.238;2022-09-13T05:25:58;7.65;;;1.80;;
71048;SDS011;58704;53.358;-6.238;2022-09-13T05:28:25;4.10;;;1.98;;
71048;SDS011;58704;53.358;-6.238;2022-09-13T05:30:59;4.75;;;1.77;;
71048;SDS011;58704;53.358;-6.238;2022-09-13T05:33:26;6.73;;;2.10;;
71048;SDS011;58704;53.358;-6.238;2022-09-13T05:35:53;4.70;;;1.90;;
71048;SDS011;58704;53.358;-6.238;2022-09-13T05:38:19;3.13;;;1.65;;
71048;SDS011;58704;53.358;-6.238;2022-09-13T05:40:46;4.88;;;2.17;;
71048;SDS011;58704;53.358;-6.238;2022-09-13T05:43:12;7.00;;;1.90;;
71048;SDS011;58704;53.358;-6.238;2022-09-13T05:45:38;4.40;;;1.80;;
71048;SDS011;58704;53.358;-6.238;2022-09-13T05:48:04;5.90;;;1.80;;
71048;SDS011;58704;53.358;-6.238;2022-09-13T05:50:29;3.87;;;2.00;;
71048;SDS011;58704;53.358;-6.238;2022-09-13T05:52:55;4.43;;;1.80;;
71048;SDS011;58704;53.358;-6.238;2022-09-13T05:55:20;6.60;;;2.40;;
71048;SDS011;58704;53.358;-6.238;2022-09-13T05:57:46;6.97;;;2.20;;
71048;SDS011;58704;53.358;-6.238;2022-09-13T06:00:12;5.47;;;2.07;;
71048;SDS011;58704;53.358;-6.238;2022-09-13T06:02:39;6.80;;;2.35;;
71048;SDS011;58704;53.358;-6.238;2022-09-13T06:05:05;2.83;;;1.80;;
71048;SDS011;58704;53.358;-6.238;2022-09-13T06:07:31;5.88;;;2.45;;
71048;SDS011;58704;53.358;-6.238;2022-09-13T06:09:57;4.37;;;2.20;;
71048;SDS011;58704;53.358;-6.238;2022-09-13T06:12:22;3.43;;;1.90;;
71048;SDS011;58704;53.358;-6.238;2022-09-13T06:14:48;8.40;;;2.40;;
71048;SDS011;58704;53.358;-6.238;2022-09-13T06:17:13;5.67;;;2.07;;
71048;SDS011;58704;53.358;-6.238;2022-09-13T06:19:39;5.60;;;2.27;;
71048;SDS011;58704;53.358;-6.238;2022-09-13T06:22:04;4.43;;;2.13;;
71048;SDS011;58704;53.358;-6.238;2022-09-13T06:24:30;4.67;;;2.10;;
71048;SDS011;58704;53.358;-6.238;2022-09-13T06:26:55;3.70;;;1.87;;
71048;SDS011;58704;53.358;-6.238;2022-09-13T06:29:20;3.90;;;2.17;;
71048;SDS011;58704;53.358;-6.238;2022-09-13T06:31:46;3.40;;;2.10;;
71048;SDS011;58704;53.358;-6.238;2022-09-13T06:34:11;6.28;;;2.38;;
71048;SDS011;58704;53.358;-6.238;2022-09-13T06:36:41;6.47;;;2.20;;
71048;SDS011;58704;53.358;-6.238;2022-09-13T06:39:07;8.65;;;2.95;;
71048;SDS011;58704;53.358;-6.238;2022-09-13T06:41:32;4.30;;;2.87;;
71048;SDS011;58704;53.358;-6.238;2022-09-13T06:43:59;6.90;;;2.88;;
71048;SDS011;58704;53.358;-6.238;2022-09-13T06:46:25;4.55;;;3.10;;
71048;SDS011;58704;53.358;-6.238;2022-09-13T06:48:52;6.47;;;3.08;;
71048;SDS011;58704;53.358;-6.238;2022-09-13T06:51:18;9.63;;;3.60;;
71048;SDS011;58704;53.358;-6.238;2022-09-13T06:53:45;5.82;;;3.10;;
71048;SDS011;58704;53.358;-6.238;2022-09-13T06:58:44;9.47;;;3.50;;
71048;SDS011;58704;53.358;-6.238;2022-09-13T07:01:13;6.63;;;3.03;;
71048;SDS011;58704;53.358;-6.238;2022-09-13T07:03:42;9.45;;;3.63;;
71048;SDS011;58704;53.358;-6.238;2022-09-13T07:06:10;8.48;;;3.05;;
71048;SDS011;58704;53.358;-6.238;2022-09-13T07:08:38;6.80;;;2.78;;
71048;SDS011;58704;53.358;-6.238;2022-09-13T07:11:04;10.23;;;3.13;;
71048;SDS011;58704;53.358;-6.238;2022-09-13T07:13:29;5.20;;;2.50;;
71048;SDS011;58704;53.358;-6.238;2022-09-13T07:15:55;10.17;;;2.50;;
71048;SDS011;58704;53.358;-6.238;2022-09-13T07:18:20;14.60;;;2.60;;
71048;SDS011;58704;53.358;-6.238;2022-09-13T07:20:47;6.53;;;2.45;;
71048;SDS011;58704;53.358;-6.238;2022-09-13T07:23:12;12.53;;;3.33;;
71048;SDS011;58704;53.358;-6.238;2022-09-13T07:25:38;9.40;;;3.25;;
71048;SDS011;58704;53.358;-6.238;2022-09-13T07:28:03;8.47;;;2.63;;
71048;SDS011;58704;53.358;-6.238;2022-09-13T07:30:29;13.53;;;2.77;;
71048;SDS011;58704;53.358;-6.238;2022-09-13T07:32:54;8.40;;;2.47;;
71048;SDS011;58704;53.358;-6.238;2022-09-13T07:35:19;6.43;;;2.55;;
71048;SDS011;58704;53.358;-6.238;2022-09-13T07:37:45;7.27;;;3.00;;
71048;SDS011;58704;53.358;-6.238;2022-09-13T07:40:10;5.87;;;2.57;;
71048;SDS011;58704;53.358;-6.238;2022-09-13T07:42:36;6.63;;;2.72;;
71048;SDS011;58704;53.358;-6.238;2022-09-13T07:45:01;7.30;;;2.60;;
71048;SDS011;58704;53.358;-6.238;2022-09-13T07:47:27;8.90;;;2.80;;
71048;SDS011;58704;53.358;-6.238;2022-09-13T07:49:53;5.20;;;2.92;;
71048;SDS011;58704;53.358;-6.238;2022-09-13T07:52:18;6.17;;;2.70;;
71048;SDS011;58704;53.358;-6.238;2022-09-13T07:54:43;7.50;;;2.00;;
71048;SDS011;58704;53.358;-6.238;2022-09-13T07:57:09;5.63;;;2.60;;
71048;SDS011;58704;53.358;-6.238;2022-09-13T07:59:34;4.90;;;2.30;;
71048;SDS011;58704;53.358;-6.238;2022-09-13T08:02:00;8.83;;;2.30;;
71048;SDS011;58704;53.358;-6.238;2022-09-13T08:04:25;3.77;;;2.70;;
71048;SDS011;58704;53.358;-6.238;2022-09-13T08:06:50;6.40;;;2.13;;
71048;SDS011;58704;53.358;-6.238;2022-09-13T08:09:16;6.20;;;2.50;;
71048;SDS011;58704;53.358;-6.238;2022-09-13T08:11:43;7.30;;;2.50;;
71048;SDS011;58704;53.358;-6.238;2022-09-13T08:14:15;4.60;;;2.10;;
71048;SDS011;58704;53.358;-6.238;2022-09-13T08:16:42;7.75;;;2.33;;
71048;SDS011;58704;53.358;-6.238;2022-09-13T08:19:09;7.33;;;2.23;;
71048;SDS011;58704;53.358;-6.238;2022-09-13T08:21:37;5.35;;;1.90;;
71048;SDS011;58704;53.358;-6.238;2022-09-13T08:24:04;7.25;;;2.00;;
71048;SDS011;58704;53.358;-6.238;2022-09-13T08:26:32;6.75;;;1.92;;
71048;SDS011;58704;53.358;-6.238;2022-09-13T08:29:00;6.85;;;2.22;;
71048;SDS011;58704;53.358;-6.238;2022-09-13T08:31:27;6.87;;;1.97;;
71048;SDS011;58704;53.358;-6.238;2022-09-13T08:33:53;6.20;;;2.10;;
71048;SDS011;58704;53.358;-6.238;2022-09-13T08:36:18;6.57;;;2.03;;
71048;SDS011;58704;53.358;-6.238;2022-09-13T08:38:51;6.20;;;2.40;;
71048;SDS011;58704;53.358;-6.238;2022-09-13T08:48:51;5.47;;;1.85;;
71048;SDS011;58704;53.358;-6.238;2022-09-13T08:51:23;7.57;;;2.00;;
71048;SDS011;58704;53.358;-6.238;2022-09-13T08:54:11;8.90;;;2.42;;
71048;SDS011;58704;53.358;-6.238;2022-09-13T09:05:03;6.70;;;2.10;;
71048;SDS011;58704;53.358;-6.238;2022-09-13T09:07:32;6.90;;;1.75;;
71048;SDS011;58704;53.358;-6.238;2022-09-13T09:10:02;3.88;;;1.33;;
71048;SDS011;58704;53.358;-6.238;2022-09-13T09:12:38;4.88;;;1.30;;
71048;SDS011;58704;53.358;-6.238;2022-09-13T09:15:13;2.65;;;1.13;;
71048;SDS011;58704;53.358;-6.238;2022-09-13T09:17:44;7.70;;;1.40;;
71048;SDS011;58704;53.358;-6.238;2022-09-13T09:20:15;5.72;;;1.48;;
71048;SDS011;58704;53.358;-6.238;2022-09-13T09:22:43;4.28;;;1.27;;
71048;SDS011;58704;53.358;-6.238;2022-09-13T09:25:10;4.32;;;1.33;;
71048;SDS011;58704;53.358;-6.238;2022-09-13T09:27:36;5.68;;;1.40;;
71048;SDS011;58704;53.358;-6.238;2022-09-13T09:30:01;3.53;;;1.13;;
71048;SDS011;58704;53.358;-6.238;2022-09-13T09:37:39;5.35;;;1.52;;
71048;SDS011;58704;53.358;-6.238;2022-09-13T09:40:08;4.93;;;1.38;;
71048;SDS011;58704;53.358;-6.238;2022-09-13T09:42:41;5.70;;;1.30;;
71048;SDS011;58704;53.358;-6.238;2022-09-13T09:45:21;3.15;;;1.23;;
71048;SDS011;58704;53.358;-6.238;2022-09-13T09:47:50;4.93;;;1.30;;
71048;SDS011;58704;53.358;-6.238;2022-09-13T09:50:38;9.80;;;1.73;;
71048;SDS011;58704;53.358;-6.238;2022-09-13T09:53:11;4.32;;;1.20;;
71048;SDS011;58704;53.358;-6.238;2022-09-13T09:56:40;4.38;;;1.00;;
71048;SDS011;58704;53.358;-6.238;2022-09-13T09:59:00;4.70;;;1.33;;
71048;SDS011;58704;53.358;-6.238;2022-09-13T10:01:31;5.57;;;1.67;;
71048;SDS011;58704;53.358;-6.238;2022-09-13T10:04:05;8.30;;;1.92;;
71048;SDS011;58704;53.358;-6.238;2022-09-13T10:06:42;4.30;;;1.20;;
71048;SDS011;58704;53.358;-6.238;2022-09-13T10:14:41;7.40;;;1.50;;
71048;SDS011;58704;53.358;-6.238;2022-09-13T10:17:14;8.55;;;1.52;;
71048;SDS011;58704;53.358;-6.238;2022-09-13T10:19:57;5.78;;;1.50;;
71048;SDS011;58704;53.358;-6.238;2022-09-13T10:22:27;3.55;;;1.00;;
71048;SDS011;58704;53.358;-6.238;2022-09-13T10:24:53;5.65;;;1.25;;
71048;SDS011;58704;53.358;-6.238;2022-09-13T10:27:31;4.00;;;1.40;;
71048;SDS011;58704;53.358;-6.238;2022-09-13T10:29:59;3.75;;;1.10;;
71048;SDS011;58704;53.358;-6.238;2022-09-13T10:32:26;3.42;;;1.10;;
71048;SDS011;58704;53.358;-6.238;2022-09-13T10:34:52;5.33;;;1.20;;
71048;SDS011;58704;53.358;-6.238;2022-09-13T10:37:20;6.35;;;1.35;;
71048;SDS011;58704;53.358;-6.238;2022-09-13T10:42:25;3.80;;;1.33;;
71048;SDS011;58704;53.358;-6.238;2022-09-13T10:44:53;7.90;;;1.55;;
71048;SDS011;58704;53.358;-6.238;2022-09-13T10:49:58;7.07;;;1.55;;
71048;SDS011;58704;53.358;-6.238;2022-09-13T10:52:43;8.48;;;1.20;;
71048;SDS011;58704;53.358;-6.238;2022-09-13T10:57:42;6.22;;;1.40;;
71048;SDS011;58704;53.358;-6.238;2022-09-13T11:00:09;5.80;;;1.27;;
71048;SDS011;58704;53.358;-6.238;2022-09-13T11:05:29;7.43;;;1.55;;
71048;SDS011;58704;53.358;-6.238;2022-09-13T11:58:00;6.78;;;1.50;;
71048;SDS011;58704;53.358;-6.238;2022-09-13T12:03:52;5.28;;;1.50;;
71048;SDS011;58704;53.358;-6.238;2022-09-13T12:06:22;6.67;;;1.43;;
71048;SDS011;58704;53.358;-6.238;2022-09-13T12:08:54;5.05;;;1.50;;
71048;SDS011;58704;53.358;-6.238;2022-09-13T12:13:57;5.03;;;1.73;;
71048;SDS011;58704;53.358;-6.238;2022-09-13T12:19:21;7.80;;;1.43;;
71048;SDS011;58704;53.358;-6.238;2022-09-13T12:21:52;5.03;;;1.23;;
71048;SDS011;58704;53.358;-6.238;2022-09-13T12:27:06;6.55;;;1.27;;
71048;SDS011;58704;53.358;-6.238;2022-09-13T12:29:39;6.63;;;1.63;;
71048;SDS011;58704;53.358;-6.238;2022-09-13T12:32:09;7.23;;;1.87;;
71048;SDS011;58704;53.358;-6.238;2022-09-13T12:34:43;6.45;;;1.60;;
71048;SDS011;58704;53.358;-6.238;2022-09-13T12:37:16;6.03;;;1.50;;
71048;SDS011;58704;53.358;-6.238;2022-09-13T12:40:04;5.37;;;1.70;;
71048;SDS011;58704;53.358;-6.238;2022-09-13T12:47:50;6.40;;;1.40;;
71048;SDS011;58704;53.358;-6.238;2022-09-13T12:58:27;5.65;;;1.40;;
71048;SDS011;58704;53.358;-6.238;2022-09-13T13:03:22;5.20;;;1.20;;
71048;SDS011;58704;53.358;-6.238;2022-09-13T13:05:56;5.67;;;2.10;;
71048;SDS011;58704;53.358;-6.238;2022-09-13T13:08:32;6.45;;;1.17;;
71048;SDS011;58704;53.358;-6.238;2022-09-13T13:13:35;4.13;;;1.10;;
71048;SDS011;58704;53.358;-6.238;2022-09-13T13:16:03;8.15;;;1.42;;
71048;SDS011;58704;53.358;-6.238;2022-09-13T13:36:47;9.17;;;1.40;;
71048;SDS011;58704;53.358;-6.238;2022-09-13T13:57:25;8.02;;;1.48;;
71048;SDS011;58704;53.358;-6.238;2022-09-13T14:02:41;8.50;;;1.38;;
71048;SDS011;58704;53.358;-6.238;2022-09-13T14:08:04;3.47;;;1.20;;
71048;SDS011;58704;53.358;-6.238;2022-09-13T14:13:42;8.55;;;1.52;;
71048;SDS011;58704;53.358;-6.238;2022-09-13T14:21:18;5.83;;;1.27;;
71048;SDS011;58704;53.358;-6.238;2022-09-13T14:23:44;8.05;;;1.38;;
71048;SDS011;58704;53.358;-6.238;2022-09-13T14:26:10;6.80;;;1.40;;
71048;SDS011;58704;53.358;-6.238;2022-09-13T14:28:36;4.07;;;1.48;;
71048;SDS011;58704;53.358;-6.238;2022-09-13T14:31:01;5.07;;;1.10;;
71048;SDS011;58704;53.358;-6.238;2022-09-13T14:33:34;7.00;;;1.23;;
71048;SDS011;58704;53.358;-6.238;2022-09-13T14:38:29;7.43;;;1.90;;
71048;SDS011;58704;53.358;-6.238;2022-09-13T14:40:59;6.90;;;1.83;;
71048;SDS011;58704;53.358;-6.238;2022-09-13T14:43:45;7.32;;;1.98;;
71048;SDS011;58704;53.358;-6.238;2022-09-13T14:46:24;4.43;;;1.33;;
71048;SDS011;58704;53.358;-6.238;2022-09-13T14:48:56;8.60;;;1.23;;
71048;SDS011;58704;53.358;-6.238;2022-09-13T14:53:58;5.95;;;1.63;;
71048;SDS011;58704;53.358;-6.238;2022-09-13T14:56:35;7.15;;;1.40;;
71048;SDS011;58704;53.358;-6.238;2022-09-13T14:59:13;5.57;;;1.30;;
71048;SDS011;58704;53.358;-6.238;2022-09-13T15:01:41;3.35;;;1.42;;
71048;SDS011;58704;53.358;-6.238;2022-09-13T15:04:07;3.47;;;1.40;;
71048;SDS011;58704;53.358;-6.238;2022-09-13T15:06:34;7.33;;;2.00;;
71048;SDS011;58704;53.358;-6.238;2022-09-13T15:11:35;4.13;;;1.45;;
71048;SDS011;58704;53.358;-6.238;2022-09-13T15:16:57;2.67;;;1.17;;
71048;SDS011;58704;53.358;-6.238;2022-09-13T15:22:14;4.23;;;1.40;;
71048;SDS011;58704;53.358;-6.238;2022-09-13T15:24:53;7.35;;;1.80;;
71048;SDS011;58704;53.358;-6.238;2022-09-13T15:29:50;5.90;;;1.70;;
71048;SDS011;58704;53.358;-6.238;2022-09-13T15:32:21;6.80;;;2.28;;
71048;SDS011;58704;53.358;-6.238;2022-09-13T15:34:49;9.23;;;1.90;;
71048;SDS011;58704;53.358;-6.238;2022-09-13T15:37:15;5.55;;;2.10;;
71048;SDS011;58704;53.358;-6.238;2022-09-13T15:40:00;5.55;;;1.95;;
71048;SDS011;58704;53.358;-6.238;2022-09-13T15:42:47;5.70;;;2.03;;
71048;SDS011;58704;53.358;-6.238;2022-09-13T15:45:13;4.20;;;2.10;;
71048;SDS011;58704;53.358;-6.238;2022-09-13T15:47:39;6.32;;;1.73;;
71048;SDS011;58704;53.358;-6.238;2022-09-13T15:50:04;3.30;;;1.90;;
71048;SDS011;58704;53.358;-6.238;2022-09-13T15:52:30;4.90;;;2.20;;
71048;SDS011;58704;53.358;-6.238;2022-09-13T15:54:56;6.27;;;1.40;;
71048;SDS011;58704;53.358;-6.238;2022-09-13T15:57:22;4.20;;;1.80;;
71048;SDS011;58704;53.358;-6.238;2022-09-13T15:59:49;5.20;;;1.43;;
71048;SDS011;58704;53.358;-6.238;2022-09-13T16:02:22;5.97;;;2.08;;
71048;SDS011;58704;53.358;-6.238;2022-09-13T16:04:49;4.45;;;1.52;;
71048;SDS011;58704;53.358;-6.238;2022-09-13T16:07:14;7.33;;;1.70;;
71048;SDS011;58704;53.358;-6.238;2022-09-13T16:09:40;8.23;;;1.67;;
71048;SDS011;58704;53.358;-6.238;2022-09-13T16:12:06;5.78;;;2.20;;
71048;SDS011;58704;53.358;-6.238;2022-09-13T16:14:31;5.60;;;1.60;;
71048;SDS011;58704;53.358;-6.238;2022-09-13T16:16:58;6.87;;;1.70;;
71048;SDS011;58704;53.358;-6.238;2022-09-13T16:19:30;5.93;;;1.50;;
71048;SDS011;58704;53.358;-6.238;2022-09-13T16:21:56;6.57;;;1.88;;
71048;SDS011;58704;53.358;-6.238;2022-09-13T16:24:21;5.17;;;1.83;;
71048;SDS011;58704;53.358;-6.238;2022-09-13T16:26:47;6.50;;;1.93;;
71048;SDS011;58704;53.358;-6.238;2022-09-13T16:29:12;7.87;;;1.73;;
71048;SDS011;58704;53.358;-6.238;2022-09-13T16:31:38;5.80;;;1.40;;
71048;SDS011;58704;53.358;-6.238;2022-09-13T16:34:03;6.20;;;1.80;;
71048;SDS011;58704;53.358;-6.238;2022-09-13T16:36:29;6.13;;;1.73;;
71048;SDS011;58704;53.358;-6.238;2022-09-13T16:38:55;4.20;;;1.20;;
71048;SDS011;58704;53.358;-6.238;2022-09-13T16:41:21;8.75;;;2.20;;
71048;SDS011;58704;53.358;-6.238;2022-09-13T16:43:46;5.33;;;1.40;;
71048;SDS011;58704;53.358;-6.238;2022-09-13T16:46:12;5.80;;;1.63;;
71048;SDS011;58704;53.358;-6.238;2022-09-13T16:48:38;6.78;;;2.20;;
71048;SDS011;58704;53.358;-6.238;2022-09-13T16:51:05;7.07;;;2.37;;
71048;SDS011;58704;53.358;-6.238;2022-09-13T16:53:35;5.28;;;1.70;;
71048;SDS011;58704;53.358;-6.238;2022-09-13T16:56:12;5.03;;;1.77;;
71048;SDS011;58704;53.358;-6.238;2022-09-13T16:58:42;7.35;;;1.60;;
71048;SDS011;58704;53.358;-6.238;2022-09-13T17:01:12;6.57;;;2.15;;
71048;SDS011;58704;53.358;-6.238;2022-09-13T17:03:39;10.43;;;1.63;;
71048;SDS011;58704;53.358;-6.238;2022-09-13T17:06:09;6.85;;;1.90;;
71048;SDS011;58704;53.358;-6.238;2022-09-13T17:08:36;8.60;;;1.80;;
71048;SDS011;58704;53.358;-6.238;2022-09-13T17:11:07;5.87;;;2.10;;
71048;SDS011;58704;53.358;-6.238;2022-09-13T17:13:34;6.38;;;1.60;;
71048;SDS011;58704;53.358;-6.238;2022-09-13T17:16:01;10.55;;;2.30;;
71048;SDS011;58704;53.358;-6.238;2022-09-13T17:18:26;7.40;;;2.50;;
71048;SDS011;58704;53.358;-6.238;2022-09-13T17:20:52;5.33;;;1.83;;
71048;SDS011;58704;53.358;-6.238;2022-09-13T17:23:17;6.87;;;1.80;;
71048;SDS011;58704;53.358;-6.238;2022-09-13T17:25:44;5.97;;;1.73;;
71048;SDS011;58704;53.358;-6.238;2022-09-13T17:28:15;4.43;;;1.80;;
71048;SDS011;58704;53.358;-6.238;2022-09-13T17:30:41;3.70;;;1.50;;
71048;SDS011;58704;53.358;-6.238;2022-09-13T17:33:07;3.38;;;1.50;;
71048;SDS011;58704;53.358;-6.238;2022-09-13T17:35:33;6.85;;;1.50;;
71048;SDS011;58704;53.358;-6.238;2022-09-13T17:37:59;6.40;;;2.07;;
71048;SDS011;58704;53.358;-6.238;2022-09-13T17:40:25;4.47;;;1.85;;
71048;SDS011;58704;53.358;-6.238;2022-09-13T17:42:52;7.43;;;2.00;;
71048;SDS011;58704;53.358;-6.238;2022-09-13T17:45:17;6.97;;;2.63;;
71048;SDS011;58704;53.358;-6.238;2022-09-13T17:47:43;6.10;;;2.00;;
71048;SDS011;58704;53.358;-6.238;2022-09-13T17:50:09;5.35;;;2.08;;
71048;SDS011;58704;53.358;-6.238;2022-09-13T17:52:35;6.13;;;2.37;;
71048;SDS011;58704;53.358;-6.238;2022-09-13T17:55:00;9.67;;;2.00;;
71048;SDS011;58704;53.358;-6.238;2022-09-13T17:57:26;5.15;;;1.95;;
71048;SDS011;58704;53.358;-6.238;2022-09-13T17:59:54;8.30;;;2.13;;
71048;SDS011;58704;53.358;-6.238;2022-09-13T18:02:20;7.22;;;1.77;;
71048;SDS011;58704;53.358;-6.238;2022-09-13T18:04:50;5.38;;;1.65;;
71048;SDS011;58704;53.358;-6.238;2022-09-13T18:07:16;9.65;;;1.80;;
71048;SDS011;58704;53.358;-6.238;2022-09-13T18:09:42;5.90;;;2.13;;
71048;SDS011;58704;53.358;-6.238;2022-09-13T18:12:08;6.00;;;2.10;;
71048;SDS011;58704;53.358;-6.238;2022-09-13T18:14:34;6.07;;;1.90;;
71048;SDS011;58704;53.358;-6.238;2022-09-13T18:16:59;5.72;;;1.60;;
71048;SDS011;58704;53.358;-6.238;2022-09-13T18:19:25;4.63;;;1.83;;
71048;SDS011;58704;53.358;-6.238;2022-09-13T18:21:51;6.22;;;2.00;;
71048;SDS011;58704;53.358;-6.238;2022-09-13T18:24:17;4.53;;;1.73;;
71048;SDS011;58704;53.358;-6.238;2022-09-13T18:26:42;5.13;;;1.97;;
71048;SDS011;58704;53.358;-6.238;2022-09-13T18:29:12;7.50;;;2.30;;
71048;SDS011;58704;53.358;-6.238;2022-09-13T18:31:38;5.17;;;2.17;;
71048;SDS011;58704;53.358;-6.238;2022-09-13T18:34:05;5.93;;;2.03;;
71048;SDS011;58704;53.358;-6.238;2022-09-13T18:36:33;6.68;;;2.35;;
71048;SDS011;58704;53.358;-6.238;2022-09-13T18:38:59;10.52;;;2.35;;
71048;SDS011;58704;53.358;-6.238;2022-09-13T18:41:35;8.27;;;2.30;;
71048;SDS011;58704;53.358;-6.238;2022-09-13T18:44:04;7.17;;;2.73;;
71048;SDS011;58704;53.358;-6.238;2022-09-13T18:46:30;12.18;;;2.83;;
71048;SDS011;58704;53.358;-6.238;2022-09-13T18:48:56;9.98;;;2.78;;
71048;SDS011;58704;53.358;-6.238;2022-09-13T18:51:22;7.07;;;2.60;;
71048;SDS011;58704;53.358;-6.238;2022-09-13T18:53:50;7.50;;;2.22;;
71048;SDS011;58704;53.358;-6.238;2022-09-13T18:56:17;6.88;;;2.40;;
71048;SDS011;58704;53.358;-6.238;2022-09-13T18:58:44;11.33;;;3.10;;
71048;SDS011;58704;53.358;-6.238;2022-09-13T19:01:19;7.13;;;2.67;;
71048;SDS011;58704;53.358;-6.238;2022-09-13T19:03:53;9.48;;;2.53;;